sensor_id;sensor_type;location;lat;lon;timestamp;pressure;altitude;pressure_sealevel;temperature;humidity
78845;BME280;68195;50.854;2.860;2023-04-16T00:01:38;102391.00;;;5.78;84.33
78845;BME280;68195;50.854;2.860;2023-04-16T00:04:04;102371.19;;;5.52;84.88
78845;BME280;68195;50.854;2.860;2023-04-16T00:06:29;102366.91;;;5.39;86.09
78845;BME280;68195;50.854;2.860;2023-04-16T00:08:58;102399.72;;;5.46;86.50
78845;BME280;68195;50.854;2.860;2023-04-16T00:11:23;102399.72;;;5.35;86.75
78845;BME280;68195;50.854;2.860;2023-04-16T00:13:49;102397.19;;;5.29;87.00
78845;BME280;68195;50.854;2.860;2023-04-16T00:16:14;102374.72;;;5.13;87.92
78845;BME280;68195;50.854;2.860;2023-04-16T00:18:42;102356.63;;;4.98;88.06
78845;BME280;68195;50.854;2.860;2023-04-16T00:21:07;102374.72;;;5.16;88.34
78845;BME280;68195;50.854;2.860;2023-04-16T00:23:33;102398.88;;;5.38;87.87
78845;BME280;68195;50.854;2.860;2023-04-16T00:25:58;102369.53;;;5.24;87.93
78845;BME280;68195;50.854;2.860;2023-04-16T00:28:29;102347.97;;;5.16;87.87
78845;BME280;68195;50.854;2.860;2023-04-16T00:30:54;102359.19;;;5.31;87.13
78845;BME280;68195;50.854;2.860;2023-04-16T00:33:20;102394.53;;;5.49;88.11
78845;BME280;68195;50.854;2.860;2023-04-16T00:35:48;102379.00;;;5.49;87.82
78845;BME280;68195;50.854;2.860;2023-04-16T00:38:14;102386.72;;;5.63;87.66
78845;BME280;68195;50.854;2.860;2023-04-16T00:40:41;102384.97;;;5.65;87.84
78845;BME280;68195;50.854;2.860;2023-04-16T00:43:09;102390.19;;;5.68;87.98
78845;BME280;68195;50.854;2.860;2023-04-16T00:45:37;102354.81;;;5.41;88.58
78845;BME280;68195;50.854;2.860;2023-04-16T00:48:05;102358.28;;;5.42;88.89
78845;BME280;68195;50.854;2.860;2023-04-16T00:50:33;102388.50;;;5.55;88.35
78845;BME280;68195;50.854;2.860;2023-04-16T00:53:01;102364.31;;;5.44;88.47
78845;BME280;68195;50.854;2.860;2023-04-16T00:55:26;102404.00;;;5.64;88.77
78845;BME280;68195;50.854;2.860;2023-04-16T00:57:52;102378.13;;;5.52;88.92
78845;BME280;68195;50.854;2.860;2023-04-16T01:00:17;102394.50;;;5.65;88.88
78845;BME280;68195;50.854;2.860;2023-04-16T01:02:45;102403.13;;;5.74;88.91
78845;BME280;68195;50.854;2.860;2023-04-16T01:05:15;102402.22;;;5.82;88.03
78845;BME280;68195;50.854;2.860;2023-04-16T01:07:43;102397.91;;;5.78;88.14
78845;BME280;68195;50.854;2.860;2023-04-16T01:10:09;102351.34;;;5.51;88.38
78845;BME280;68195;50.854;2.860;2023-04-16T01:12:34;102393.59;;;5.78;87.23
78845;BME280;68195;50.854;2.860;2023-04-16T01:15:02;102396.16;;;5.86;87.37
78845;BME280;68195;50.854;2.860;2023-04-16T01:17:30;102372.88;;;5.73;87.31
78845;BME280;68195;50.854;2.860;2023-04-16T01:20:01;102393.56;;;5.92;87.69
78845;BME280;68195;50.854;2.860;2023-04-16T01:22:29;102417.72;;;6.09;86.83
78845;BME280;68195;50.854;2.860;2023-04-16T01:24:57;102361.59;;;5.84;87.58
78845;BME280;68195;50.854;2.860;2023-04-16T01:27:22;102375.41;;;5.83;87.84
78845;BME280;68195;50.854;2.860;2023-04-16T01:29:47;102403.94;;;5.95;88.27
78845;BME280;68195;50.854;2.860;2023-04-16T01:32:13;102406.53;;;5.92;88.51
78845;BME280;68195;50.854;2.860;2023-04-16T01:34:38;102389.28;;;5.75;88.51
78845;BME280;68195;50.854;2.860;2023-04-16T01:37:04;102377.22;;;5.68;88.79
78845;BME280;68195;50.854;2.860;2023-04-16T01:39:29;102410.84;;;5.81;88.53
78845;BME280;68195;50.854;2.860;2023-04-16T01:41:55;102367.75;;;5.58;88.77
78845;BME280;68195;50.854;2.860;2023-04-16T01:44:24;102376.34;;;5.66;88.52
78845;BME280;68195;50.854;2.860;2023-04-16T01:46:50;102411.69;;;5.87;89.17
78845;BME280;68195;50.854;2.860;2023-04-16T01:49:16;102410.84;;;5.90;88.18
78845;BME280;68195;50.854;2.860;2023-04-16T01:51:41;102381.53;;;5.69;88.13
78845;BME280;68195;50.854;2.860;2023-04-16T01:54:06;102401.34;;;5.84;88.25
78845;BME280;68195;50.854;2.860;2023-04-16T01:56:32;102409.09;;;5.89;88.46
78845;BME280;68195;50.854;2.860;2023-04-16T01:58:59;102401.34;;;5.83;88.21
78845;BME280;68195;50.854;2.860;2023-04-16T02:01:25;102402.22;;;5.80;88.30
78845;BME280;68195;50.854;2.860;2023-04-16T02:03:53;102391.88;;;5.69;88.72
78845;BME280;68195;50.854;2.860;2023-04-16T02:06:18;102386.72;;;5.72;88.54
78845;BME280;68195;50.854;2.860;2023-04-16T02:08:43;102372.06;;;5.62;88.57
78845;BME280;68195;50.854;2.860;2023-04-16T02:11:11;102393.59;;;5.73;88.88
78845;BME280;68195;50.854;2.860;2023-04-16T02:13:36;102402.22;;;5.82;89.34
78845;BME280;68195;50.854;2.860;2023-04-16T02:16:02;102355.66;;;5.54;89.03
78845;BME280;68195;50.854;2.860;2023-04-16T02:18:27;102379.81;;;5.65;88.96
78845;BME280;68195;50.854;2.860;2023-04-16T02:20:53;102397.06;;;5.74;88.55
78845;BME280;68195;50.854;2.860;2023-04-16T02:23:18;102373.75;;;5.63;88.67
78845;BME280;68195;50.854;2.860;2023-04-16T02:25:45;102383.25;;;5.67;88.79
78845;BME280;68195;50.854;2.860;2023-04-16T02:28:15;102405.69;;;5.78;89.51
78845;BME280;68195;50.854;2.860;2023-04-16T02:30:40;102419.50;;;5.86;88.70
78845;BME280;68195;50.854;2.860;2023-04-16T02:33:10;102418.63;;;5.84;89.35
78845;BME280;68195;50.854;2.860;2023-04-16T02:35:38;102380.69;;;5.64;89.09
78845;BME280;68195;50.854;2.860;2023-04-16T02:38:07;102383.25;;;5.73;88.41
78845;BME280;68195;50.854;2.860;2023-04-16T02:40:32;102376.28;;;5.79;87.87
78845;BME280;68195;50.854;2.860;2023-04-16T02:42:58;102395.28;;;5.98;88.23
78845;BME280;68195;50.854;2.860;2023-04-16T02:45:23;102398.72;;;5.98;88.06
78845;BME280;68195;50.854;2.860;2023-04-16T02:47:49;102420.28;;;6.14;87.88
78845;BME280;68195;50.854;2.860;2023-04-16T02:50:16;102406.50;;;6.03;87.74
78845;BME280;68195;50.854;2.860;2023-04-16T02:52:41;102417.69;;;6.15;87.98
78845;BME280;68195;50.854;2.860;2023-04-16T02:55:12;102420.25;;;6.17;87.05
78845;BME280;68195;50.854;2.860;2023-04-16T02:57:38;102415.06;;;6.19;87.49
78845;BME280;68195;50.854;2.860;2023-04-16T03:00:07;102396.94;;;6.12;86.67
78845;BME280;68195;50.854;2.860;2023-04-16T03:02:32;102413.34;;;6.22;86.49
78845;BME280;68195;50.854;2.860;2023-04-16T03:05:00;102409.84;;;6.22;86.37
78845;BME280;68195;50.854;2.860;2023-04-16T03:07:30;102397.00;;;6.03;87.02
78845;BME280;68195;50.854;2.860;2023-04-16T03:10:01;102368.50;;;5.88;86.85
78845;BME280;68195;50.854;2.860;2023-04-16T03:12:26;102428.06;;;6.15;86.82
78845;BME280;68195;50.854;2.860;2023-04-16T03:14:51;102403.88;;;6.06;86.79
78845;BME280;68195;50.854;2.860;2023-04-16T03:17:17;102388.34;;;5.93;86.70
78845;BME280;68195;50.854;2.860;2023-04-16T03:19:42;102424.63;;;6.06;86.58
78845;BME280;68195;50.854;2.860;2023-04-16T03:22:08;102365.09;;;5.66;86.85
78845;BME280;68195;50.854;2.860;2023-04-16T03:24:33;102377.22;;;5.62;87.08
78845;BME280;68195;50.854;2.860;2023-04-16T03:26:58;102418.66;;;5.71;87.02
78845;BME280;68195;50.854;2.860;2023-04-16T03:29:26;102378.13;;;5.52;87.74
78845;BME280;68195;50.854;2.860;2023-04-16T03:31:52;102403.13;;;5.65;87.04
78845;BME280;68195;50.854;2.860;2023-04-16T03:34:20;102419.53;;;5.67;87.05
78845;BME280;68195;50.854;2.860;2023-04-16T03:36:45;102419.56;;;5.63;87.98
78845;BME280;68195;50.854;2.860;2023-04-16T03:39:10;102410.09;;;5.48;87.57
78845;BME280;68195;50.854;2.860;2023-04-16T03:41:38;102421.31;;;5.53;87.35
78845;BME280;68195;50.854;2.860;2023-04-16T03:44:04;102394.56;;;5.34;87.47
78845;BME280;68195;50.854;2.860;2023-04-16T03:46:29;102393.69;;;5.37;87.60
78845;BME280;68195;50.854;2.860;2023-04-16T03:48:54;102423.00;;;5.63;86.68
78845;BME280;68195;50.854;2.860;2023-04-16T03:51:20;102423.00;;;5.63;87.11
78845;BME280;68195;50.854;2.860;2023-04-16T03:53:48;102394.56;;;5.45;86.97
78845;BME280;68195;50.854;2.860;2023-04-16T03:56:19;102426.47;;;5.59;87.87
78845;BME280;68195;50.854;2.860;2023-04-16T03:58:44;102427.34;;;5.53;87.99
78845;BME280;68195;50.854;2.860;2023-04-16T04:01:10;102388.53;;;5.27;87.19
78845;BME280;68195;50.854;2.860;2023-04-16T04:03:35;102424.75;;;5.60;87.38
78845;BME280;68195;50.854;2.860;2023-04-16T04:06:06;102386.78;;;5.40;86.72
78845;BME280;68195;50.854;2.860;2023-04-16T04:08:31;102417.81;;;5.63;86.09
78845;BME280;68195;50.854;2.860;2023-04-16T04:10:56;102421.25;;;5.73;85.61
78845;BME280;68195;50.854;2.860;2023-04-16T04:13:24;102391.06;;;5.52;86.48
78845;BME280;68195;50.854;2.860;2023-04-16T04:15:50;102414.34;;;5.67;85.56
78845;BME280;68195;50.854;2.860;2023-04-16T04:18:15;102418.69;;;5.73;85.70
78845;BME280;68195;50.854;2.860;2023-04-16T04:20:40;102385.03;;;5.53;85.37
78845;BME280;68195;50.854;2.860;2023-04-16T04:23:06;102424.69;;;5.78;85.76
78845;BME280;68195;50.854;2.860;2023-04-16T04:25:34;102381.59;;;5.51;85.48
78845;BME280;68195;50.854;2.860;2023-04-16T04:27:59;102411.78;;;5.64;85.74
78845;BME280;68195;50.854;2.860;2023-04-16T04:30:27;102417.84;;;5.66;85.32
78845;BME280;68195;50.854;2.860;2023-04-16T04:32:57;102379.88;;;5.42;85.42
78845;BME280;68195;50.854;2.860;2023-04-16T04:35:27;102383.34;;;5.33;86.12
78845;BME280;68195;50.854;2.860;2023-04-16T04:37:55;102420.47;;;5.40;87.24
78845;BME280;68195;50.854;2.860;2023-04-16T04:40:20;102415.31;;;5.29;87.32
78845;BME280;68195;50.854;2.860;2023-04-16T04:42:46;102417.88;;;5.20;87.27
78845;BME280;68195;50.854;2.860;2023-04-16T04:45:11;102396.31;;;5.10;87.10
78845;BME280;68195;50.854;2.860;2023-04-16T04:47:37;102432.56;;;5.33;87.16
78845;BME280;68195;50.854;2.860;2023-04-16T04:50:05;102429.94;;;5.40;86.97
78845;BME280;68195;50.854;2.860;2023-04-16T04:52:30;102379.91;;;5.19;86.40
78845;BME280;68195;50.854;2.860;2023-04-16T04:54:56;102391.09;;;5.29;86.15
78845;BME280;68195;50.854;2.860;2023-04-16T04:57:21;102421.31;;;5.48;86.15
78845;BME280;68195;50.854;2.860;2023-04-16T04:59:46;102379.91;;;5.24;85.47
78845;BME280;68195;50.854;2.860;2023-04-16T05:02:14;102392.84;;;5.30;85.20
78845;BME280;68195;50.854;2.860;2023-04-16T05:04:40;102417.00;;;5.40;85.32
78845;BME280;68195;50.854;2.860;2023-04-16T05:07:05;102419.59;;;5.43;85.23
78845;BME280;68195;50.854;2.860;2023-04-16T05:09:31;102431.69;;;5.44;85.52
78845;BME280;68195;50.854;2.860;2023-04-16T05:11:56;102425.66;;;5.29;85.67
78845;BME280;68195;50.854;2.860;2023-04-16T05:14:22;102442.03;;;5.44;85.63
78845;BME280;68195;50.854;2.860;2023-04-16T05:16:47;102426.50;;;5.41;85.88
78845;BME280;68195;50.854;2.860;2023-04-16T05:19:15;102403.22;;;5.16;86.16
78845;BME280;68195;50.854;2.860;2023-04-16T05:21:41;102445.53;;;5.27;86.94
78845;BME280;68195;50.854;2.860;2023-04-16T05:24:06;102420.50;;;5.14;86.76
78845;BME280;68195;50.854;2.860;2023-04-16T05:26:34;102440.34;;;5.24;86.17
78845;BME280;68195;50.854;2.860;2023-04-16T05:29:04;102430.84;;;5.29;86.11
78845;BME280;68195;50.854;2.860;2023-04-16T05:31:29;102436.88;;;5.33;85.80
78845;BME280;68195;50.854;2.860;2023-04-16T05:33:57;102418.75;;;5.24;85.09
78845;BME280;68195;50.854;2.860;2023-04-16T05:36:24;102442.06;;;5.36;85.24
78845;BME280;68195;50.854;2.860;2023-04-16T05:38:52;102423.94;;;5.24;84.92
78845;BME280;68195;50.854;2.860;2023-04-16T05:41:17;102428.25;;;5.29;85.59
78845;BME280;68195;50.854;2.860;2023-04-16T05:43:45;102442.94;;;5.38;85.37
78845;BME280;68195;50.854;2.860;2023-04-16T05:46:13;102419.63;;;5.21;85.09
78845;BME280;68195;50.854;2.860;2023-04-16T05:48:38;102455.84;;;5.46;84.96
78845;BME280;68195;50.854;2.860;2023-04-16T05:51:04;102410.13;;;5.26;85.58
78845;BME280;68195;50.854;2.860;2023-04-16T05:53:32;102406.66;;;5.24;85.94
78845;BME280;68195;50.854;2.860;2023-04-16T05:55:57;102414.44;;;5.30;86.12
78845;BME280;68195;50.854;2.860;2023-04-16T05:58:25;102461.03;;;5.52;86.68
78845;BME280;68195;50.854;2.860;2023-04-16T06:00:50;102453.25;;;5.52;87.14
78845;BME280;68195;50.854;2.860;2023-04-16T06:03:15;102462.75;;;5.59;87.23
78845;BME280;68195;50.854;2.860;2023-04-16T06:05:45;102429.09;;;5.41;87.90
78845;BME280;68195;50.854;2.860;2023-04-16T06:08:10;102456.69;;;5.65;87.67
78845;BME280;68195;50.854;2.860;2023-04-16T06:10:40;102462.75;;;5.62;87.86
78845;BME280;68195;50.854;2.860;2023-04-16T06:13:06;102421.34;;;5.42;88.45
78845;BME280;68195;50.854;2.860;2023-04-16T06:15:31;102468.78;;;5.75;88.57
78845;BME280;68195;50.854;2.860;2023-04-16T06:17:56;102422.19;;;5.55;88.57
78845;BME280;68195;50.854;2.860;2023-04-16T06:20:22;102441.16;;;5.66;88.51
78845;BME280;68195;50.854;2.860;2023-04-16T06:22:50;102454.09;;;5.75;88.22
78845;BME280;68195;50.854;2.860;2023-04-16T06:25:15;102454.94;;;5.81;88.57
78845;BME280;68195;50.854;2.860;2023-04-16T06:27:43;102444.59;;;5.78;88.04
78845;BME280;68195;50.854;2.860;2023-04-16T06:30:12;102485.13;;;6.11;87.91
78845;BME280;68195;50.854;2.860;2023-04-16T06:32:38;102449.75;;;6.01;88.45
78845;BME280;68195;50.854;2.860;2023-04-16T06:35:04;102459.22;;;6.09;88.76
78845;BME280;68195;50.854;2.860;2023-04-16T06:37:31;102451.41;;;6.15;88.21
78845;BME280;68195;50.854;2.860;2023-04-16T06:39:59;102462.59;;;6.24;88.55
78845;BME280;68195;50.854;2.860;2023-04-16T06:42:29;102481.56;;;6.38;88.64
78845;BME280;68195;50.854;2.860;2023-04-16T06:44:55;102432.34;;;6.23;87.56
78845;BME280;68195;50.854;2.860;2023-04-16T06:47:20;102484.09;;;6.53;87.61
78845;BME280;68195;50.854;2.860;2023-04-16T06:49:50;102471.16;;;6.49;87.86
78845;BME280;68195;50.854;2.860;2023-04-16T06:52:16;102486.63;;;6.66;87.41
78845;BME280;68195;50.854;2.860;2023-04-16T06:54:41;102477.06;;;6.69;87.66
78845;BME280;68195;50.854;2.860;2023-04-16T06:57:06;102476.22;;;6.72;87.80
78845;BME280;68195;50.854;2.860;2023-04-16T06:59:32;102479.59;;;6.80;88.40
78845;BME280;68195;50.854;2.860;2023-04-16T07:01:57;102445.06;;;6.69;87.29
78845;BME280;68195;50.854;2.860;2023-04-16T07:04:25;102460.53;;;6.84;87.13
78845;BME280;68195;50.854;2.860;2023-04-16T07:06:50;102438.94;;;6.77;86.56
78845;BME280;68195;50.854;2.860;2023-04-16T07:09:18;102493.28;;;7.10;86.34
78845;BME280;68195;50.854;2.860;2023-04-16T07:11:46;102487.13;;;7.20;86.32
78845;BME280;68195;50.854;2.860;2023-04-16T07:14:11;102445.69;;;7.06;85.52
78845;BME280;68195;50.854;2.860;2023-04-16T07:16:39;102493.06;;;7.39;85.47
78845;BME280;68195;50.854;2.860;2023-04-16T07:19:04;102486.13;;;7.39;85.87
78845;BME280;68195;50.854;2.860;2023-04-16T07:21:30;102501.56;;;7.55;85.56
78845;BME280;68195;50.854;2.860;2023-04-16T07:23:58;102486.03;;;7.49;84.63
78845;BME280;68195;50.854;2.860;2023-04-16T07:26:23;102505.88;;;7.60;85.06
78845;BME280;68195;50.854;2.860;2023-04-16T07:28:49;102473.03;;;7.47;85.65
78845;BME280;68195;50.854;2.860;2023-04-16T07:31:14;102463.50;;;7.48;85.69
78845;BME280;68195;50.854;2.860;2023-04-16T07:33:42;102467.72;;;7.59;84.98
78845;BME280;68195;50.854;2.860;2023-04-16T07:36:07;102511.59;;;7.95;84.31
78845;BME280;68195;50.854;2.860;2023-04-16T07:38:32;102501.16;;;7.98;83.45
78845;BME280;68195;50.854;2.860;2023-04-16T07:40:59;102517.50;;;8.11;83.39
78845;BME280;68195;50.854;2.860;2023-04-16T07:43:24;102485.59;;;7.95;82.25
78845;BME280;68195;50.854;2.860;2023-04-16T07:45:50;102508.75;;;8.16;82.21
78845;BME280;68195;50.854;2.860;2023-04-16T07:48:18;102490.63;;;8.09;81.80
78845;BME280;68195;50.854;2.860;2023-04-16T07:50:43;102508.66;;;8.22;82.57
78845;BME280;68195;50.854;2.860;2023-04-16T07:53:09;102506.88;;;8.28;82.10
78845;BME280;68195;50.854;2.860;2023-04-16T07:55:34;102492.13;;;8.27;82.14
78845;BME280;68195;50.854;2.860;2023-04-16T07:58:02;102529.19;;;8.50;81.03
78845;BME280;68195;50.854;2.860;2023-04-16T08:00:28;102516.38;;;8.32;80.68
78845;BME280;68195;50.854;2.860;2023-04-16T08:02:54;102508.53;;;8.33;81.65
78845;BME280;68195;50.854;2.860;2023-04-16T08:05:21;102534.34;;;8.55;80.62
78845;BME280;68195;50.854;2.860;2023-04-16T08:07:47;102525.72;;;8.51;80.04
78845;BME280;68195;50.854;2.860;2023-04-16T08:10:14;102545.66;;;8.55;79.85
78845;BME280;68195;50.854;2.860;2023-04-16T08:12:40;102547.97;;;8.77;80.37
78845;BME280;68195;50.854;2.860;2023-04-16T08:15:06;102509.13;;;8.58;79.76
78845;BME280;68195;50.854;2.860;2023-04-16T08:17:32;102533.13;;;8.82;79.53
78845;BME280;68195;50.854;2.860;2023-04-16T08:20:02;102500.38;;;8.64;78.96
78845;BME280;68195;50.854;2.860;2023-04-16T08:22:30;102525.31;;;8.80;79.00
78845;BME280;68195;50.854;2.860;2023-04-16T08:24:58;102512.50;;;8.67;78.26
78845;BME280;68195;50.854;2.860;2023-04-16T08:27:23;102541.72;;;8.87;78.43
78845;BME280;68195;50.854;2.860;2023-04-16T08:29:51;102533.22;;;8.76;78.98
78845;BME280;68195;50.854;2.860;2023-04-16T08:32:19;102553.06;;;8.86;78.02
78845;BME280;68195;50.854;2.860;2023-04-16T08:34:44;102552.06;;;8.96;78.01
78845;BME280;68195;50.854;2.860;2023-04-16T08:37:10;102530.38;;;8.91;77.71
78845;BME280;68195;50.854;2.860;2023-04-16T08:39:35;102558.75;;;9.13;77.03
78845;BME280;68195;50.854;2.860;2023-04-16T08:42:04;102552.47;;;9.26;76.99
78845;BME280;68195;50.854;2.860;2023-04-16T08:44:36;102526.38;;;9.26;76.31
78845;BME280;68195;50.854;2.860;2023-04-16T08:47:08;102535.72;;;9.39;75.91
78845;BME280;68195;50.854;2.860;2023-04-16T08:49:34;102514.06;;;9.37;74.94
78845;BME280;68195;50.854;2.860;2023-04-16T08:52:05;102538.81;;;9.63;75.58
78845;BME280;68195;50.854;2.860;2023-04-16T08:54:38;102553.16;;;9.89;75.34
78845;BME280;68195;50.854;2.860;2023-04-16T08:57:09;102515.97;;;9.77;73.58
78845;BME280;68195;50.854;2.860;2023-04-16T08:59:35;102503.75;;;9.79;72.73
78845;BME280;68195;50.854;2.860;2023-04-16T09:02:07;102550.22;;;10.07;71.46
78845;BME280;68195;50.854;2.860;2023-04-16T09:04:35;102537.38;;;9.96;70.81
78845;BME280;68195;50.854;2.860;2023-04-16T09:07:05;102545.00;;;10.07;71.30
78845;BME280;68195;50.854;2.860;2023-04-16T09:09:32;102567.47;;;10.16;70.46
78845;BME280;68195;50.854;2.860;2023-04-16T09:11:58;102515.38;;;10.10;69.41
78845;BME280;68195;50.854;2.860;2023-04-16T09:14:23;102538.34;;;10.37;70.66
78845;BME280;68195;50.854;2.860;2023-04-16T09:16:50;102534.75;;;10.43;70.86
78845;BME280;68195;50.854;2.860;2023-04-16T09:19:17;102529.69;;;10.35;70.72
78845;BME280;68195;50.854;2.860;2023-04-16T09:21:45;102560.31;;;10.71;70.59
78845;BME280;68195;50.854;2.860;2023-04-16T09:24:14;102541.13;;;10.72;70.18
78845;BME280;68195;50.854;2.860;2023-04-16T09:26:42;102521.50;;;10.52;68.96
78845;BME280;68195;50.854;2.860;2023-04-16T09:29:08;102561.94;;;10.76;69.52
78845;BME280;68195;50.854;2.860;2023-04-16T09:31:33;102561.81;;;10.82;69.01
78845;BME280;68195;50.854;2.860;2023-04-16T09:36:26;102563.69;;;10.76;69.44
78845;BME280;68195;50.854;2.860;2023-04-16T09:38:55;102563.41;;;10.88;69.06
78845;BME280;68195;50.854;2.860;2023-04-16T09:41:30;102557.34;;;10.86;67.86
78845;BME280;68195;50.854;2.860;2023-04-16T09:43:58;102558.81;;;10.99;68.49
78845;BME280;68195;50.854;2.860;2023-04-16T09:46:33;102559.53;;;11.06;67.98
78845;BME280;68195;50.854;2.860;2023-04-16T09:49:17;102530.00;;;11.01;67.22
78845;BME280;68195;50.854;2.860;2023-04-16T09:51:48;102561.19;;;11.10;68.03
78845;BME280;68195;50.854;2.860;2023-04-16T09:54:18;102540.00;;;10.82;67.82
78845;BME280;68195;50.854;2.860;2023-04-16T09:56:47;102538.41;;;10.76;67.01
78845;BME280;68195;50.854;2.860;2023-04-16T09:59:20;102552.72;;;10.99;67.17
78845;BME280;68195;50.854;2.860;2023-04-16T10:01:48;102553.25;;;11.15;66.88
78845;BME280;68195;50.854;2.860;2023-04-16T10:04:16;102549.91;;;11.08;67.06
78845;BME280;68195;50.854;2.860;2023-04-16T10:06:42;102552.19;;;11.22;67.34
78845;BME280;68195;50.854;2.860;2023-04-16T10:09:12;102559.66;;;11.37;67.28
78845;BME280;68195;50.854;2.860;2023-04-16T10:11:38;102565.34;;;11.19;65.98
78845;BME280;68195;50.854;2.860;2023-04-16T10:14:29;102569.59;;;11.23;66.79
78845;BME280;68195;50.854;2.860;2023-04-16T10:16:58;102544.56;;;11.13;66.39
78845;BME280;68195;50.854;2.860;2023-04-16T10:19:26;102538.53;;;11.09;65.17
78845;BME280;68195;50.854;2.860;2023-04-16T10:21:52;102535.13;;;11.05;64.04
78845;BME280;68195;50.854;2.860;2023-04-16T10:24:19;102555.09;;;11.09;62.60
78845;BME280;68195;50.854;2.860;2023-04-16T10:26:48;102567.19;;;11.14;63.79
78845;BME280;68195;50.854;2.860;2023-04-16T10:29:15;102576.81;;;11.12;64.76
78845;BME280;68195;50.854;2.860;2023-04-16T10:31:43;102581.03;;;11.19;66.01
78845;BME280;68195;50.854;2.860;2023-04-16T10:34:09;102533.34;;;11.07;63.53
78845;BME280;68195;50.854;2.860;2023-04-16T10:36:35;102576.19;;;11.39;63.36
78845;BME280;68195;50.854;2.860;2023-04-16T10:39:01;102537.44;;;11.19;64.42
78845;BME280;68195;50.854;2.860;2023-04-16T10:41:26;102487.41;;;10.97;64.85
78845;BME280;68195;50.854;2.860;2023-04-16T10:44:02;102574.97;;;11.54;63.47
78845;BME280;68195;50.854;2.860;2023-04-16T10:46:36;102569.72;;;11.54;62.68
78845;BME280;68195;50.854;2.860;2023-04-16T10:51:39;102496.47;;;11.18;61.48
78845;BME280;68195;50.854;2.860;2023-04-16T10:56:36;102566.13;;;11.58;63.36
78845;BME280;68195;50.854;2.860;2023-04-16T10:59:09;102569.47;;;11.65;63.55
78845;BME280;68195;50.854;2.860;2023-04-16T11:01:41;102561.84;;;11.56;63.95
78845;BME280;68195;50.854;2.860;2023-04-16T11:12:16;102560.59;;;11.70;62.73
78845;BME280;68195;50.854;2.860;2023-04-16T11:14:52;102473.00;;;11.17;63.36
78845;BME280;68195;50.854;2.860;2023-04-16T11:17:18;102522.47;;;11.60;63.44
78845;BME280;68195;50.854;2.860;2023-04-16T11:19:47;102528.84;;;11.83;63.39
78845;BME280;68195;50.854;2.860;2023-04-16T11:22:16;102560.66;;;12.03;63.62
78845;BME280;68195;50.854;2.860;2023-04-16T11:24:45;102558.44;;;11.88;60.24
78845;BME280;68195;50.854;2.860;2023-04-16T11:27:13;102552.44;;;11.81;58.84
78845;BME280;68195;50.854;2.860;2023-04-16T11:29:39;102545.69;;;11.73;60.70
78845;BME280;68195;50.854;2.860;2023-04-16T11:32:05;102524.97;;;11.65;61.13
78845;BME280;68195;50.854;2.860;2023-04-16T11:34:33;102561.78;;;11.93;60.90
78845;BME280;68195;50.854;2.860;2023-04-16T11:36:59;102528.97;;;11.78;61.41
78845;BME280;68195;50.854;2.860;2023-04-16T11:39:24;102524.88;;;11.68;57.65
78845;BME280;68195;50.854;2.860;2023-04-16T11:41:50;102522.59;;;11.56;59.66
78845;BME280;68195;50.854;2.860;2023-04-16T11:44:21;102553.22;;;11.86;61.96
78845;BME280;68195;50.854;2.860;2023-04-16T11:46:47;102485.19;;;11.52;58.40
78845;BME280;68195;50.854;2.860;2023-04-16T11:49:13;102564.13;;;12.04;58.20
78845;BME280;68195;50.854;2.860;2023-04-16T11:51:39;102555.97;;;12.15;59.26
78845;BME280;68195;50.854;2.860;2023-04-16T11:54:07;102448.66;;;11.47;58.79
78845;BME280;68195;50.854;2.860;2023-04-16T11:56:35;102530.25;;;11.98;60.36
78845;BME280;68195;50.854;2.860;2023-04-16T11:59:07;102550.63;;;12.18;58.55
78845;BME280;68195;50.854;2.860;2023-04-16T12:01:34;102485.31;;;11.80;59.96
78845;BME280;68195;50.854;2.860;2023-04-16T12:04:01;102523.84;;;12.08;57.96
78845;BME280;68195;50.854;2.860;2023-04-16T12:06:26;102525.50;;;12.12;55.84
78845;BME280;68195;50.854;2.860;2023-04-16T12:08:52;102535.16;;;12.10;55.45
78845;BME280;68195;50.854;2.860;2023-04-16T12:11:17;102484.44;;;11.80;55.96
78845;BME280;68195;50.854;2.860;2023-04-16T12:14:09;102556.09;;;12.10;55.78
78845;BME280;68195;50.854;2.860;2023-04-16T12:16:37;102521.56;;;11.96;58.03
78845;BME280;68195;50.854;2.860;2023-04-16T12:19:03;102555.50;;;12.31;58.14
78845;BME280;68195;50.854;2.860;2023-04-16T12:21:43;102530.97;;;12.03;55.41
78845;BME280;68195;50.854;2.860;2023-04-16T12:24:10;102481.13;;;11.73;54.44
78845;BME280;68195;50.854;2.860;2023-04-16T12:26:43;102548.13;;;12.15;56.48
78845;BME280;68195;50.854;2.860;2023-04-16T12:29:24;102535.06;;;12.13;56.08
78845;BME280;68195;50.854;2.860;2023-04-16T12:31:52;102551.22;;;12.29;56.96
78845;BME280;68195;50.854;2.860;2023-04-16T12:34:20;102569.50;;;12.30;54.99
78845;BME280;68195;50.854;2.860;2023-04-16T12:37:05;102527.47;;;12.04;54.01
78845;BME280;68195;50.854;2.860;2023-04-16T12:39:32;102545.47;;;12.16;55.52
78845;BME280;68195;50.854;2.860;2023-04-16T12:41:57;102548.91;;;12.18;57.00
78845;BME280;68195;50.854;2.860;2023-04-16T12:44:25;102524.56;;;12.13;54.92
78845;BME280;68195;50.854;2.860;2023-04-16T12:46:54;102525.81;;;12.00;52.85
78845;BME280;68195;50.854;2.860;2023-04-16T12:49:23;102485.56;;;11.71;55.59
78845;BME280;68195;50.854;2.860;2023-04-16T12:51:50;102505.22;;;11.86;55.43
78845;BME280;68195;50.854;2.860;2023-04-16T12:54:16;102542.78;;;12.18;53.34
78845;BME280;68195;50.854;2.860;2023-04-16T12:56:41;102547.81;;;12.25;53.18
78845;BME280;68195;50.854;2.860;2023-04-16T12:59:06;102525.56;;;12.09;56.58
78845;BME280;68195;50.854;2.860;2023-04-16T13:01:34;102529.81;;;12.13;56.86
78845;BME280;68195;50.854;2.860;2023-04-16T13:04:01;102516.06;;;12.05;55.26
78845;BME280;68195;50.854;2.860;2023-04-16T13:06:26;102431.66;;;11.64;54.02
78845;BME280;68195;50.854;2.860;2023-04-16T13:08:55;102478.03;;;11.92;53.78
78845;BME280;68195;50.854;2.860;2023-04-16T13:11:23;102501.75;;;12.18;55.34
78845;BME280;68195;50.854;2.860;2023-04-16T13:13:48;102518.91;;;12.28;53.15